createdAt,value
2022-11-07T00:00:12.567Z,4.57
2022-11-07T00:00:24.484Z,5.13
2022-11-07T00:00:36.968Z,3.85
2022-11-07T00:00:50.245Z,2.97
2022-11-07T00:01:13.766Z,2.50
2022-11-07T00:01:25.733Z,2.15
2022-11-07T00:01:37.782Z,1.58
2022-11-07T00:01:50.701Z,1.30
2022-11-07T00:02:04.090Z,1.38
2022-11-07T00:02:16.120Z,1.40
2022-11-07T00:02:28.106Z,1.33
2022-11-07T00:02:40.320Z,1.27
2022-11-07T00:02:52.316Z,1.30
2022-11-07T00:03:04.565Z,1.30
2022-11-07T00:03:16.866Z,1.40
2022-11-07T00:03:29.026Z,1.40
2022-11-07T00:03:41.142Z,1.23
2022-11-07T00:03:56.769Z,1.10
2022-11-07T00:04:08.661Z,1.10
2022-11-07T00:04:20.586Z,1.33
2022-11-07T00:04:33.009Z,1.40
2022-11-07T00:04:45.024Z,1.30
2022-11-07T00:04:56.937Z,1.30
2022-11-07T00:05:09.318Z,1.40
2022-11-07T00:05:22.118Z,1.40
2022-11-07T00:05:34.177Z,1.35
2022-11-07T00:05:46.146Z,1.25
2022-11-07T00:05:58.023Z,1.25
2022-11-07T00:06:10.308Z,1.30
2022-11-07T00:06:22.678Z,1.40
2022-11-07T00:06:37.325Z,1.30
2022-11-07T00:06:49.193Z,1.23
2022-11-07T00:07:02.926Z,1.33
2022-11-07T00:07:14.959Z,1.40
2022-11-07T00:07:26.873Z,1.35
2022-11-07T00:07:38.813Z,1.33
2022-11-07T00:07:50.694Z,1.30
2022-11-07T00:08:02.664Z,1.40
2022-11-07T00:08:14.574Z,1.30
2022-11-07T00:08:31.700Z,1.40
2022-11-07T00:08:43.771Z,1.30
2022-11-07T00:08:56.068Z,1.25
2022-11-07T00:09:08.210Z,1.30
2022-11-07T00:09:20.091Z,1.25
2022-11-07T00:09:32.308Z,1.30
2022-11-07T00:09:44.322Z,1.40
2022-11-07T00:09:56.429Z,1.50
2022-11-07T00:10:08.594Z,1.50
2022-11-07T00:10:20.479Z,1.45
2022-11-07T00:10:32.427Z,1.40
2022-11-07T00:10:44.665Z,1.40
2022-11-07T00:10:56.555Z,1.40
2022-11-07T00:11:08.555Z,1.35
2022-11-07T00:11:20.646Z,1.30
2022-11-07T00:11:32.734Z,1.27
2022-11-07T00:11:44.840Z,1.30
2022-11-07T00:11:57.039Z,1.38
2022-11-07T00:12:09.136Z,1.40
2022-11-07T00:12:21.073Z,1.48
2022-11-07T00:12:36.367Z,1.58
2022-11-07T00:12:48.276Z,1.48
2022-11-07T00:13:00.184Z,1.40
2022-11-07T00:13:12.323Z,1.35
2022-11-07T00:13:25.426Z,1.30
2022-11-07T00:13:37.410Z,1.30
2022-11-07T00:13:49.299Z,1.30
2022-11-07T00:14:01.223Z,1.30
2022-11-07T00:14:13.856Z,1.38
2022-11-07T00:14:25.813Z,1.30
2022-11-07T00:14:37.725Z,1.40
2022-11-07T00:14:49.834Z,1.40
2022-11-07T00:15:03.132Z,1.50
2022-11-07T00:15:15.109Z,1.52
2022-11-07T00:15:27.016Z,1.50
2022-11-07T00:15:39.008Z,1.40
2022-11-07T00:15:50.896Z,1.23
2022-11-07T00:16:05.772Z,1.20
2022-11-07T00:16:17.693Z,1.30
2022-11-07T00:16:29.650Z,1.20
2022-11-07T00:16:41.585Z,1.30
2022-11-07T00:16:53.582Z,1.30
2022-11-07T00:17:07.165Z,1.30
2022-11-07T00:17:19.056Z,1.10
2022-11-07T00:17:31.315Z,1.13
2022-11-07T00:17:43.179Z,1.30
2022-11-07T00:17:55.063Z,1.33
2022-11-07T00:18:07.031Z,1.23
2022-11-07T00:18:18.908Z,1.20
2022-11-07T00:18:30.895Z,1.20
2022-11-07T00:18:42.790Z,1.30
2022-11-07T00:18:55.454Z,1.30
2022-11-07T00:19:07.418Z,1.30
2022-11-07T00:19:20.957Z,1.33
2022-11-07T00:19:32.915Z,1.40
2022-11-07T00:19:45.056Z,1.53
2022-11-07T00:19:56.914Z,1.50
2022-11-07T00:20:09.478Z,1.45
2022-11-07T00:20:21.347Z,1.35
2022-11-07T00:20:33.235Z,1.27
2022-11-07T00:20:45.327Z,1.10
2022-11-07T00:21:04.663Z,1.20
2022-11-07T00:21:16.551Z,1.60
2022-11-07T00:21:28.514Z,1.73
2022-11-07T00:21:41.390Z,1.70
2022-11-07T00:21:53.280Z,1.60
2022-11-07T00:22:05.250Z,1.50
2022-11-07T00:22:17.219Z,1.40
2022-11-07T00:22:29.075Z,1.33
2022-11-07T00:22:41.212Z,1.48
2022-11-07T00:22:53.101Z,1.40
2022-11-07T00:23:04.983Z,1.45
2022-11-07T00:23:17.196Z,1.25
2022-11-07T00:23:29.396Z,1.38
2022-11-07T00:23:42.087Z,1.50
2022-11-07T00:23:54.489Z,1.60
2022-11-07T00:24:07.852Z,1.60
2022-11-07T00:24:19.963Z,1.63
2022-11-07T00:24:32.018Z,1.50
2022-11-07T00:24:43.904Z,1.40
2022-11-07T00:24:55.826Z,1.35
2022-11-07T00:25:08.316Z,1.40
2022-11-07T00:25:20.179Z,1.45
2022-11-07T00:25:32.102Z,1.48
2022-11-07T00:25:44.029Z,1.40
2022-11-07T00:26:02.520Z,1.30
2022-11-07T00:26:15.230Z,1.30
2022-11-07T00:26:27.353Z,1.40
2022-11-07T00:26:40.480Z,1.60
2022-11-07T00:26:52.463Z,1.60
2022-11-07T00:27:04.662Z,1.48
2022-11-07T00:27:16.602Z,1.33
2022-11-07T00:27:28.724Z,1.38
2022-11-07T00:27:40.765Z,1.40
2022-11-07T00:27:52.851Z,1.60
2022-11-07T00:28:04.920Z,1.73
2022-11-07T00:28:16.987Z,1.77
2022-11-07T00:28:28.923Z,1.65
2022-11-07T00:28:42.977Z,1.52
2022-11-07T00:28:55.007Z,1.65
2022-11-07T00:29:06.954Z,1.58
2022-11-07T00:29:20.224Z,1.40
2022-11-07T00:29:32.126Z,1.40
2022-11-07T00:29:44.209Z,2.25
2022-11-07T00:29:56.076Z,4.18
2022-11-07T00:30:08.353Z,4.85
2022-11-07T00:30:20.231Z,3.67
2022-11-07T00:30:32.336Z,3.10
2022-11-07T00:30:44.275Z,2.85
2022-11-07T00:30:58.608Z,2.13
2022-11-07T00:31:12.626Z,1.50
2022-11-07T00:31:24.586Z,1.40
2022-11-07T00:31:36.491Z,1.33
2022-11-07T00:31:49.236Z,1.30
2022-11-07T00:32:01.183Z,1.30
2022-11-07T00:32:13.153Z,1.20
2022-11-07T00:32:25.053Z,1.10
2022-11-07T00:32:37.003Z,1.10
2022-11-07T00:32:48.891Z,1.13
2022-11-07T00:33:00.803Z,1.38
2022-11-07T00:33:12.771Z,1.67
2022-11-07T00:33:25.075Z,2.00
2022-11-07T00:33:36.962Z,1.88
2022-11-07T00:33:49.260Z,1.58
2022-11-07T00:34:01.192Z,1.50
2022-11-07T00:34:13.899Z,1.60
2022-11-07T00:34:25.781Z,1.40
2022-11-07T00:34:37.744Z,1.65
2022-11-07T00:34:49.739Z,1.70
2022-11-07T00:35:01.721Z,1.60
2022-11-07T00:35:13.662Z,1.60
2022-11-07T00:35:25.579Z,2.05
2022-11-07T00:35:42.114Z,2.78
2022-11-07T00:35:54.003Z,4.78
2022-11-07T00:36:06.398Z,4.80
2022-11-07T00:36:20.806Z,4.47
2022-11-07T00:36:33.079Z,4.65
2022-11-07T00:36:45.013Z,4.20
2022-11-07T00:36:56.941Z,3.42
2022-11-07T00:37:08.904Z,2.97
2022-11-07T00:37:20.817Z,3.00
2022-11-07T00:37:32.754Z,2.90
2022-11-07T00:37:44.643Z,2.83
2022-11-07T00:37:56.770Z,2.90
2022-11-07T00:38:08.958Z,2.83
2022-11-07T00:38:21.210Z,2.63
2022-11-07T00:38:33.225Z,2.33
2022-11-07T00:38:45.668Z,2.28
2022-11-07T00:38:57.637Z,2.80
2022-11-07T00:39:12.934Z,3.13
2022-11-07T00:39:24.783Z,3.08
2022-11-07T00:39:36.686Z,2.72
2022-11-07T00:39:48.575Z,2.25
2022-11-07T00:40:00.504Z,2.10
2022-11-07T00:40:12.653Z,2.28
2022-11-07T00:40:24.546Z,2.55
2022-11-07T00:40:36.473Z,2.42
2022-11-07T00:41:03.379Z,2.15
2022-11-07T00:41:15.649Z,2.10
2022-11-07T00:41:27.925Z,3.05
2022-11-07T00:41:39.853Z,3.13
2022-11-07T00:41:51.726Z,4.57
2022-11-07T00:42:03.679Z,4.35
2022-11-07T00:42:15.581Z,4.20
2022-11-07T00:42:27.472Z,3.17
2022-11-07T00:42:39.409Z,2.90
2022-11-07T00:42:51.286Z,2.60
2022-11-07T00:43:03.203Z,2.50
2022-11-07T00:43:15.421Z,2.38
2022-11-07T00:43:28.181Z,2.70
2022-11-07T00:43:40.135Z,2.97
2022-11-07T00:43:52.560Z,5.05
2022-11-07T00:44:04.536Z,6.03
2022-11-07T00:44:16.669Z,4.78
2022-11-07T00:44:28.544Z,2.97
2022-11-07T00:44:40.655Z,2.83
2022-11-07T00:44:52.530Z,2.80
2022-11-07T00:45:04.841Z,2.80
2022-11-07T00:45:16.812Z,2.42
2022-11-07T00:45:28.905Z,2.30
2022-11-07T00:45:40.759Z,2.42
2022-11-07T00:45:54.062Z,2.80
2022-11-07T00:46:07.464Z,2.90
2022-11-07T00:46:20.160Z,2.70
2022-11-07T00:46:32.365Z,2.40
2022-11-07T00:46:44.286Z,2.00
2022-11-07T00:46:56.177Z,1.80
2022-11-07T00:47:08.057Z,1.70
2022-11-07T00:47:19.942Z,1.70
2022-11-07T00:47:32.016Z,1.60
2022-11-07T00:47:43.930Z,1.60
2022-11-07T00:47:55.945Z,1.40
2022-11-07T00:48:07.838Z,1.30
2022-11-07T00:48:20.440Z,1.30
2022-11-07T00:48:32.430Z,1.60
2022-11-07T00:48:44.476Z,2.08
2022-11-07T00:48:56.462Z,2.20
2022-11-07T00:49:08.584Z,1.77
2022-11-07T00:49:20.501Z,1.90
2022-11-07T00:49:32.592Z,1.80
2022-11-07T00:49:44.472Z,1.50
2022-11-07T00:49:56.442Z,1.65
2022-11-07T00:50:08.694Z,1.75
2022-11-07T00:50:20.585Z,1.63
2022-11-07T00:50:32.473Z,1.60
2022-11-07T00:50:44.430Z,1.60
2022-11-07T00:50:56.505Z,1.70
2022-11-07T00:51:11.474Z,1.77
2022-11-07T00:51:27.987Z,1.52
2022-11-07T00:51:39.930Z,1.30
2022-11-07T00:51:54.517Z,1.30
2022-11-07T00:52:06.406Z,1.30
2022-11-07T00:52:18.278Z,1.30
2022-11-07T00:52:30.333Z,1.20
2022-11-07T00:52:42.213Z,1.20
2022-11-07T00:52:57.144Z,1.40
2022-11-07T00:53:09.238Z,1.40
2022-11-07T00:53:21.219Z,1.27
2022-11-07T00:53:33.206Z,1.30
2022-11-07T00:53:45.371Z,1.40
2022-11-07T00:53:57.400Z,1.50
2022-11-07T00:54:09.333Z,1.40
2022-11-07T00:54:21.253Z,1.30
2022-11-07T00:54:33.124Z,1.23
2022-11-07T00:54:45.297Z,1.42
2022-11-07T00:54:57.195Z,1.60
2022-11-07T00:55:09.615Z,1.50
2022-11-07T00:55:21.484Z,1.50
2022-11-07T00:55:33.952Z,1.50
2022-11-07T00:55:46.020Z,1.48
2022-11-07T00:56:05.942Z,1.40
2022-11-07T00:56:20.909Z,1.40
2022-11-07T00:56:32.777Z,1.40
2022-11-07T00:56:44.723Z,1.50
2022-11-07T00:56:56.752Z,1.58
2022-11-07T00:57:08.650Z,1.40
2022-11-07T00:57:20.668Z,1.33
2022-11-07T00:57:32.541Z,1.40
2022-11-07T00:57:44.597Z,1.40
2022-11-07T00:57:56.470Z,1.40
2022-11-07T00:58:12.641Z,1.40
2022-11-07T00:58:26.018Z,1.30
2022-11-07T00:58:38.374Z,1.42
2022-11-07T00:58:59.823Z,1.70
2022-11-07T00:59:12.705Z,1.67
2022-11-07T00:59:24.854Z,1.70
2022-11-07T00:59:36.907Z,1.65
2022-11-07T00:59:48.861Z,1.65
2022-11-07T01:00:00.929Z,1.75
2022-11-07T01:00:13.105Z,1.60
2022-11-07T01:00:25.436Z,1.45
2022-11-07T01:00:37.823Z,1.48
2022-11-07T01:00:49.701Z,1.52
2022-11-07T01:01:09.186Z,1.70
2022-11-07T01:01:23.828Z,1.65
2022-11-07T01:01:36.013Z,1.60
2022-11-07T01:01:48.147Z,1.63
2022-11-07T01:02:00.277Z,1.55
2022-11-07T01:02:12.443Z,1.48
2022-11-07T01:02:24.525Z,1.50
2022-11-07T01:02:36.694Z,1.65
2022-11-07T01:03:08.627Z,1.63
2022-11-07T01:03:39.424Z,1.92
2022-11-07T01:04:10.277Z,1.70
2022-11-07T01:04:40.653Z,1.52
2022-11-07T01:05:10.623Z,1.60
2022-11-07T01:05:22.508Z,1.88
2022-11-07T01:05:34.477Z,1.80
2022-11-07T01:05:59.791Z,1.80
2022-11-07T01:06:12.338Z,1.80
2022-11-07T01:06:26.472Z,1.60
2022-11-07T01:06:40.212Z,1.70
2022-11-07T01:06:52.265Z,1.83
2022-11-07T01:07:04.181Z,1.90
2022-11-07T01:07:16.237Z,1.90
2022-11-07T01:07:28.221Z,1.70
2022-11-07T01:07:40.216Z,1.70
2022-11-07T01:07:52.727Z,1.92
2022-11-07T01:08:05.413Z,2.00
2022-11-07T01:08:17.379Z,1.80
2022-11-07T01:08:29.834Z,1.70
2022-11-07T01:08:41.802Z,1.77
2022-11-07T01:08:54.896Z,2.40
2022-11-07T01:09:12.164Z,2.40
2022-11-07T01:09:24.083Z,1.75
2022-11-07T01:09:35.974Z,1.98
2022-11-07T01:09:47.852Z,2.08
2022-11-07T01:09:59.716Z,2.03
2022-11-07T01:10:11.721Z,1.80
2022-11-07T01:10:23.610Z,1.80
2022-11-07T01:10:41.406Z,1.88
2022-11-07T01:10:54.164Z,1.92
2022-11-07T01:11:07.087Z,1.88
2022-11-07T01:11:18.996Z,1.90
2022-11-07T01:11:30.930Z,1.80
2022-11-07T01:11:43.910Z,1.90
2022-11-07T01:11:55.790Z,1.90
2022-11-07T01:12:07.742Z,2.05
2022-11-07T01:12:19.611Z,1.92
2022-11-07T01:12:34.082Z,1.90
2022-11-07T01:12:46.061Z,1.90
2022-11-07T01:12:58.015Z,1.90
2022-11-07T01:13:09.924Z,1.98
2022-11-07T01:13:23.125Z,1.77
2022-11-07T01:13:36.058Z,1.77
2022-11-07T01:13:47.952Z,1.70
2022-11-07T01:14:02.156Z,1.70
2022-11-07T01:14:16.104Z,1.80
2022-11-07T01:14:28.068Z,1.80
2022-11-07T01:14:40.081Z,1.80
2022-11-07T01:14:51.973Z,1.70
2022-11-07T01:15:04.327Z,1.73
2022-11-07T01:15:16.280Z,1.60
2022-11-07T01:15:28.176Z,1.60
2022-11-07T01:15:41.364Z,1.63
2022-11-07T01:15:53.376Z,1.70
2022-11-07T01:16:05.599Z,1.75
2022-11-07T01:16:17.638Z,1.80
2022-11-07T01:16:31.229Z,1.65
2022-11-07T01:16:43.980Z,1.52
2022-11-07T01:16:56.010Z,1.70
2022-11-07T01:17:07.967Z,1.80
2022-11-07T01:17:19.957Z,1.70
2022-11-07T01:17:32.046Z,1.60
2022-11-07T01:17:43.935Z,1.60
2022-11-07T01:17:55.881Z,1.60
2022-11-07T01:18:08.037Z,1.52
2022-11-07T01:18:20.312Z,1.63
2022-11-07T01:18:32.252Z,1.80
2022-11-07T01:18:44.253Z,1.70
2022-11-07T01:18:56.190Z,1.65
2022-11-07T01:19:08.815Z,1.63
2022-11-07T01:19:21.727Z,1.60
2022-11-07T01:19:33.614Z,1.67
2022-11-07T01:19:45.704Z,1.58
2022-11-07T01:19:57.593Z,1.50
2022-11-07T01:20:10.192Z,1.40
2022-11-07T01:20:22.127Z,1.40
2022-11-07T01:20:33.998Z,1.50
2022-11-07T01:20:46.615Z,1.50
2022-11-07T01:20:58.504Z,1.40
2022-11-07T01:21:15.275Z,1.20
2022-11-07T01:21:28.623Z,1.30
2022-11-07T01:21:42.022Z,1.35
2022-11-07T01:21:54.127Z,1.30
2022-11-07T01:22:06.102Z,1.40
2022-11-07T01:22:17.992Z,1.40
2022-11-07T01:22:29.884Z,1.40
2022-11-07T01:22:42.204Z,1.30
2022-11-07T01:22:54.117Z,1.30
2022-11-07T01:23:06.027Z,1.40
2022-11-07T01:23:18.277Z,1.52
2022-11-07T01:23:30.364Z,1.50
2022-11-07T01:23:42.317Z,1.40
2022-11-07T01:23:54.302Z,1.35
2022-11-07T01:24:08.282Z,1.35
2022-11-07T01:24:20.267Z,1.48
2022-11-07T01:24:32.183Z,1.50
2022-11-07T01:24:44.157Z,1.50
2022-11-07T01:24:56.045Z,1.50
2022-11-07T01:25:08.540Z,1.40
2022-11-07T01:25:20.418Z,1.25
2022-11-07T01:25:32.525Z,1.10
2022-11-07T01:25:44.712Z,1.20
2022-11-07T01:25:56.719Z,1.23
2022-11-07T01:26:10.481Z,1.40
2022-11-07T01:26:22.569Z,1.30
2022-11-07T01:26:35.920Z,1.20
2022-11-07T01:26:48.142Z,1.20
2022-11-07T01:27:00.124Z,1.30
2022-11-07T01:27:12.006Z,1.30
2022-11-07T01:27:23.895Z,1.30
2022-11-07T01:27:35.869Z,1.50
2022-11-07T01:27:47.771Z,1.50
2022-11-07T01:27:59.666Z,1.48
2022-11-07T01:28:11.829Z,1.30
2022-11-07T01:28:23.838Z,1.20
2022-11-07T01:28:36.129Z,1.30
2022-11-07T01:28:48.282Z,1.40
2022-11-07T01:29:00.261Z,1.40
2022-11-07T01:29:12.257Z,1.30
2022-11-07T01:29:24.789Z,1.17
2022-11-07T01:29:37.280Z,1.20
2022-11-07T01:29:49.437Z,1.20
2022-11-07T01:30:01.367Z,1.20
2022-11-07T01:30:13.407Z,1.30
2022-11-07T01:30:25.326Z,1.20
2022-11-07T01:30:41.811Z,1.15
2022-11-07T01:30:53.974Z,1.40
2022-11-07T01:31:08.068Z,1.40
2022-11-07T01:31:20.376Z,1.27
2022-11-07T01:31:32.416Z,1.20
2022-11-07T01:31:44.738Z,1.30
2022-11-07T01:31:56.697Z,1.23
2022-11-07T01:32:08.607Z,1.20
2022-11-07T01:32:20.869Z,1.20
2022-11-07T01:32:32.898Z,1.30
2022-11-07T01:32:44.778Z,1.40
2022-11-07T01:32:57.102Z,1.27
2022-11-07T01:33:10.054Z,1.30
2022-11-07T01:33:22.234Z,1.38
2022-11-07T01:33:34.368Z,1.40
2022-11-07T01:33:46.899Z,1.42
2022-11-07T01:33:59.815Z,1.27
2022-11-07T01:34:12.256Z,1.30
2022-11-07T01:34:24.291Z,1.30
2022-11-07T01:34:36.295Z,1.23
2022-11-07T01:34:48.234Z,1.33
2022-11-07T01:35:00.197Z,1.40
2022-11-07T01:35:12.068Z,1.38
2022-11-07T01:35:23.946Z,1.30
2022-11-07T01:35:37.079Z,1.48
2022-11-07T01:35:48.996Z,1.50
2022-11-07T01:36:05.936Z,1.42
2022-11-07T01:36:18.782Z,1.40
2022-11-07T01:36:30.976Z,1.40
2022-11-07T01:36:43.391Z,1.40
2022-11-07T01:36:55.317Z,1.48
2022-11-07T01:37:07.209Z,1.33
2022-11-07T01:37:19.148Z,1.20
2022-11-07T01:37:31.011Z,1.20
2022-11-07T01:37:42.992Z,1.13
2022-11-07T01:37:54.878Z,1.20
2022-11-07T01:38:07.004Z,1.27
2022-11-07T01:38:18.900Z,1.50
2022-11-07T01:38:30.978Z,1.50
2022-11-07T01:38:48.516Z,1.27
2022-11-07T01:39:00.538Z,1.13
2022-11-07T01:39:12.780Z,1.30
2022-11-07T01:39:24.711Z,1.27
2022-11-07T01:39:37.041Z,1.20
2022-11-07T01:39:50.086Z,1.20
2022-11-07T01:40:02.008Z,1.30
2022-11-07T01:40:13.881Z,1.30
2022-11-07T01:40:26.376Z,1.13
2022-11-07T01:41:01.369Z,1.13
2022-11-07T01:41:22.281Z,1.33
2022-11-07T01:41:36.228Z,1.50
2022-11-07T01:41:48.189Z,1.50
2022-11-07T01:42:00.163Z,1.40
2022-11-07T01:42:12.934Z,1.40
2022-11-07T01:42:25.593Z,1.40
2022-11-07T01:42:37.619Z,1.40
2022-11-07T01:42:49.540Z,1.35
2022-11-07T01:43:01.471Z,1.35
2022-11-07T01:43:13.608Z,1.20
2022-11-07T01:43:41.196Z,1.20
2022-11-07T01:43:55.771Z,1.50
2022-11-07T01:44:07.645Z,1.30
2022-11-07T01:44:19.474Z,1.20
2022-11-07T01:44:36.914Z,1.20
2022-11-07T01:44:52.467Z,1.10
2022-11-07T01:45:04.858Z,1.27
2022-11-07T01:45:29.527Z,1.40
2022-11-07T01:45:41.759Z,1.10
2022-11-07T01:45:53.643Z,1.17
2022-11-07T01:46:05.616Z,1.20
2022-11-07T01:46:18.964Z,1.30
2022-11-07T01:46:39.814Z,1.38
2022-11-07T01:46:56.191Z,1.40
2022-11-07T01:47:09.894Z,1.33
2022-11-07T01:47:24.053Z,1.27
2022-11-07T01:47:38.544Z,1.20
2022-11-07T01:47:53.160Z,1.30
2022-11-07T01:48:05.202Z,1.30
2022-11-07T01:48:17.184Z,1.23
2022-11-07T01:48:29.079Z,1.10
2022-11-07T01:48:44.427Z,1.00
2022-11-07T01:49:01.950Z,1.10
2022-11-07T01:49:25.670Z,1.20
2022-11-07T01:49:42.372Z,1.30
2022-11-07T01:49:54.830Z,1.20
2022-11-07T01:50:07.529Z,1.20
2022-11-07T01:50:20.071Z,1.23
2022-11-07T01:50:32.349Z,1.15
2022-11-07T01:50:44.692Z,1.20
2022-11-07T01:50:56.577Z,1.25
2022-11-07T01:51:09.242Z,1.27
2022-11-07T01:51:23.327Z,1.30
2022-11-07T01:51:45.451Z,1.40
2022-11-07T01:52:08.352Z,1.50
2022-11-07T01:52:28.899Z,1.30
2022-11-07T01:52:43.943Z,1.25
2022-11-07T01:52:56.906Z,1.33
2022-11-07T01:53:09.422Z,1.40
2022-11-07T01:53:21.444Z,1.30
2022-11-07T01:53:35.783Z,1.20
2022-11-07T01:53:48.696Z,1.23
2022-11-07T01:54:01.916Z,1.30
2022-11-07T01:54:17.019Z,1.30
2022-11-07T01:54:33.180Z,1.40
2022-11-07T01:54:54.910Z,1.45
2022-11-07T01:55:10.799Z,1.40
2022-11-07T01:55:28.490Z,1.40
2022-11-07T01:55:40.470Z,1.15
2022-11-07T01:55:52.408Z,1.20
2022-11-07T01:56:11.495Z,1.20
2022-11-07T01:56:28.287Z,1.20
2022-11-07T01:56:42.687Z,1.30
2022-11-07T01:56:57.920Z,1.40
2022-11-07T01:57:15.457Z,1.40
2022-11-07T01:57:33.153Z,1.40
2022-11-07T01:58:01.245Z,1.40
2022-11-07T01:58:13.134Z,1.38
2022-11-07T01:58:25.074Z,1.40
2022-11-07T01:58:37.247Z,1.33
2022-11-07T01:58:49.150Z,1.42
2022-11-07T01:59:02.835Z,1.40
2022-11-07T01:59:18.493Z,1.30
2022-11-07T01:59:32.775Z,1.20
2022-11-07T01:59:45.241Z,1.15
2022-11-07T02:00:00.864Z,1.20
2022-11-07T02:00:16.567Z,1.50
2022-11-07T02:00:31.024Z,1.40
2022-11-07T02:00:42.907Z,1.30
2022-11-07T02:00:54.918Z,1.20
2022-11-07T02:01:06.807Z,1.30
2022-11-07T02:01:19.004Z,1.45
2022-11-07T02:01:31.161Z,1.45
2022-11-07T02:01:43.719Z,1.33
2022-11-07T02:01:55.928Z,1.30
2022-11-07T02:02:09.608Z,1.35
2022-11-07T02:02:25.342Z,1.40
2022-11-07T02:02:38.271Z,1.40
2022-11-07T02:02:55.406Z,1.30
2022-11-07T02:03:11.090Z,1.33
2022-11-07T02:03:23.155Z,1.48
2022-11-07T02:03:35.699Z,1.30
2022-11-07T02:03:48.014Z,1.40
2022-11-07T02:04:01.338Z,1.40
2022-11-07T02:04:13.523Z,1.40
2022-11-07T02:04:29.578Z,1.42
2022-11-07T02:04:41.729Z,1.45
2022-11-07T02:04:57.812Z,1.45
2022-11-07T02:05:13.603Z,1.50
2022-11-07T02:05:31.701Z,1.50
2022-11-07T02:05:49.053Z,1.50
2022-11-07T02:06:06.249Z,1.60
2022-11-07T02:06:36.014Z,1.48
2022-11-07T02:07:01.855Z,1.40
2022-11-07T02:07:21.956Z,1.42
2022-11-07T02:07:35.797Z,1.30
2022-11-07T02:07:47.818Z,1.20
2022-11-07T02:08:02.853Z,1.38
2022-11-07T02:08:16.174Z,1.50
2022-11-07T02:08:29.946Z,1.40
2022-11-07T02:08:43.316Z,1.30
2022-11-07T02:08:55.295Z,1.30
2022-11-07T02:09:07.207Z,1.33
2022-11-07T02:09:19.319Z,1.52
2022-11-07T02:09:31.741Z,1.50
2022-11-07T02:09:44.716Z,1.50
2022-11-07T02:09:56.878Z,1.40
2022-11-07T02:10:09.571Z,1.30
2022-11-07T02:10:21.977Z,1.38
2022-11-07T02:10:39.446Z,1.40
2022-11-07T02:10:53.244Z,1.40
2022-11-07T02:11:06.642Z,1.40
2022-11-07T02:11:20.149Z,1.30
2022-11-07T02:11:33.018Z,1.30
2022-11-07T02:11:44.929Z,1.40
2022-11-07T02:12:00.895Z,1.40
2022-11-07T02:12:14.354Z,1.38
2022-11-07T02:12:27.678Z,1.30
2022-11-07T02:12:40.000Z,1.38
2022-11-07T02:12:52.269Z,1.40
2022-11-07T02:13:04.689Z,1.38
2022-11-07T02:13:28.184Z,1.30
2022-11-07T02:13:40.160Z,1.30
2022-11-07T02:13:52.085Z,1.25
2022-11-07T02:14:04.207Z,1.27
2022-11-07T02:14:17.205Z,1.30
2022-11-07T02:14:29.787Z,1.20
2022-11-07T02:14:43.180Z,1.30
2022-11-07T02:14:56.198Z,1.40
2022-11-07T02:15:09.892Z,1.30
2022-11-07T02:15:21.834Z,1.30
2022-11-07T02:15:35.450Z,1.20
2022-11-07T02:15:47.414Z,1.23
2022-11-07T02:16:03.059Z,1.20
2022-11-07T02:16:15.904Z,1.30
2022-11-07T02:16:28.907Z,1.38
2022-11-07T02:16:40.817Z,1.40
2022-11-07T02:16:53.274Z,1.40
2022-11-07T02:17:05.364Z,1.50
2022-11-07T02:17:18.881Z,1.40
2022-11-07T02:17:30.924Z,1.25
2022-11-07T02:17:42.880Z,1.23
2022-11-07T02:17:56.478Z,1.30
2022-11-07T02:18:08.591Z,1.30
2022-11-07T02:18:22.296Z,1.33
2022-11-07T02:18:36.724Z,1.30
2022-11-07T02:18:48.866Z,1.20
2022-11-07T02:19:01.787Z,1.20
2022-11-07T02:19:25.667Z,1.25
2022-11-07T02:19:44.594Z,1.30
2022-11-07T02:19:56.807Z,1.25
2022-11-07T02:20:09.434Z,1.20
2022-11-07T02:20:21.344Z,1.20
2022-11-07T02:20:33.231Z,1.27
2022-11-07T02:20:45.688Z,1.20
2022-11-07T02:21:00.888Z,1.30
2022-11-07T02:22:05.259Z,1.30
2022-11-07T02:22:41.452Z,1.23
2022-11-07T02:23:26.434Z,1.33
2022-11-07T02:23:49.815Z,1.20
2022-11-07T02:24:08.880Z,1.20
2022-11-07T02:24:30.023Z,1.20
2022-11-07T02:24:42.142Z,1.27
2022-11-07T02:24:57.609Z,1.23
2022-11-07T02:25:12.679Z,1.23
2022-11-07T02:25:25.264Z,1.20
2022-11-07T02:25:37.566Z,1.30
2022-11-07T02:25:49.460Z,1.40
2022-11-07T02:26:01.691Z,1.30
2022-11-07T02:26:13.922Z,1.30
2022-11-07T02:26:27.292Z,1.30
2022-11-07T02:26:40.875Z,1.30
2022-11-07T02:26:54.821Z,1.27
2022-11-07T02:27:12.898Z,1.17
2022-11-07T02:27:28.473Z,1.02
2022-11-07T02:27:42.051Z,1.10
2022-11-07T02:27:58.344Z,1.20
2022-11-07T02:28:12.603Z,1.20
2022-11-07T02:28:27.903Z,1.23
2022-11-07T02:28:40.953Z,1.20
2022-11-07T02:28:56.200Z,1.27
2022-11-07T02:29:10.074Z,1.10
2022-11-07T02:29:23.974Z,1.10
2022-11-07T02:29:38.940Z,1.30
2022-11-07T02:29:55.704Z,1.42
2022-11-07T02:30:10.085Z,1.48
2022-11-07T02:30:25.970Z,1.33
2022-11-07T02:30:38.913Z,1.17
2022-11-07T02:30:50.977Z,1.25
2022-11-07T02:31:02.845Z,1.30
2022-11-07T02:31:14.734Z,1.27
2022-11-07T02:31:26.615Z,1.30
2022-11-07T02:31:38.584Z,1.27
2022-11-07T02:32:05.430Z,1.20
2022-11-07T02:32:17.766Z,1.20
2022-11-07T02:32:30.054Z,1.30
2022-11-07T02:32:42.040Z,1.40
2022-11-07T02:32:54.037Z,1.40
2022-11-07T02:33:21.105Z,1.42
2022-11-07T02:33:33.005Z,1.20
2022-11-07T02:33:45.028Z,1.20
2022-11-07T02:33:56.923Z,1.25
2022-11-07T02:34:08.987Z,1.30
2022-11-07T02:34:20.865Z,1.35
2022-11-07T02:34:33.342Z,1.30
2022-11-07T02:34:45.387Z,1.17
2022-11-07T02:34:59.314Z,1.20
2022-11-07T02:35:36.043Z,1.27
2022-11-07T02:35:50.713Z,1.20
2022-11-07T02:36:02.834Z,1.23
2022-11-07T02:36:18.964Z,1.33
2022-11-07T02:36:30.920Z,1.40
2022-11-07T02:36:42.836Z,1.35
2022-11-07T02:36:54.728Z,1.27
2022-11-07T02:37:16.839Z,1.35
2022-11-07T02:37:35.654Z,1.40
2022-11-07T02:37:47.677Z,1.30
2022-11-07T02:37:59.679Z,1.20
2022-11-07T02:38:17.149Z,1.17
2022-11-07T02:38:32.631Z,1.20
2022-11-07T02:38:48.822Z,1.30
2022-11-07T02:39:00.748Z,1.27
2022-11-07T02:39:12.650Z,1.20
2022-11-07T02:39:24.910Z,1.23
2022-11-07T02:39:36.816Z,1.40
2022-11-07T02:39:49.026Z,1.33
2022-11-07T02:40:04.666Z,1.40
2022-11-07T02:40:16.568Z,1.40
2022-11-07T02:40:31.399Z,1.40
2022-11-07T02:40:45.527Z,1.40
2022-11-07T02:41:03.031Z,1.38
2022-11-07T02:41:23.085Z,1.40
2022-11-07T02:41:35.498Z,1.40
2022-11-07T02:41:48.129Z,1.35
2022-11-07T02:42:01.760Z,1.30
2022-11-07T02:42:13.800Z,1.20
2022-11-07T02:42:26.824Z,1.20
2022-11-07T02:42:45.196Z,1.30
2022-11-07T02:42:59.459Z,1.40
2022-11-07T02:43:13.477Z,1.52
2022-11-07T02:43:30.053Z,1.55
2022-11-07T02:43:49.483Z,1.50
2022-11-07T02:44:08.842Z,1.48
2022-11-07T02:44:21.055Z,1.40
2022-11-07T02:44:33.977Z,1.30
2022-11-07T02:44:47.718Z,1.38
2022-11-07T02:44:59.980Z,1.42
2022-11-07T02:45:37.707Z,1.42
2022-11-07T02:45:50.901Z,1.40
2022-11-07T02:46:07.267Z,1.30
2022-11-07T02:46:20.539Z,1.13
2022-11-07T02:46:32.900Z,1.20
2022-11-07T02:46:45.202Z,1.30
2022-11-07T02:46:57.219Z,1.30
2022-11-07T02:47:09.334Z,1.40
2022-11-07T02:47:21.450Z,1.40
2022-11-07T02:47:33.320Z,1.30
2022-11-07T02:47:45.614Z,1.17
2022-11-07T02:47:57.501Z,1.08
2022-11-07T02:48:09.701Z,1.10
2022-11-07T02:48:21.928Z,1.20
2022-11-07T02:48:43.697Z,1.35
2022-11-07T02:48:58.324Z,1.27
2022-11-07T02:49:10.302Z,1.35
2022-11-07T02:49:22.166Z,1.38
2022-11-07T02:49:34.183Z,1.42
2022-11-07T02:49:46.066Z,1.40
2022-11-07T02:49:57.948Z,1.38
2022-11-07T02:50:12.815Z,1.40
2022-11-07T02:50:25.147Z,1.40
2022-11-07T02:50:37.106Z,1.40
2022-11-07T02:50:49.212Z,1.30
2022-11-07T02:51:01.087Z,1.20
2022-11-07T02:51:14.035Z,1.20
2022-11-07T02:51:26.127Z,1.30
2022-11-07T02:51:38.057Z,1.40
2022-11-07T02:51:49.941Z,1.30
2022-11-07T02:52:01.964Z,1.20
2022-11-07T02:52:13.865Z,1.20
2022-11-07T02:52:25.760Z,1.30
2022-11-07T02:52:37.662Z,1.42
2022-11-07T02:52:49.568Z,1.42
2022-11-07T02:53:01.528Z,1.40
2022-11-07T02:53:14.051Z,1.30
2022-11-07T02:53:26.204Z,1.30
2022-11-07T02:53:38.152Z,1.30
2022-11-07T02:53:50.471Z,1.30
2022-11-07T02:54:02.372Z,1.23
2022-11-07T02:54:14.296Z,1.20
2022-11-07T02:54:26.170Z,1.13
2022-11-07T02:54:38.147Z,1.13
2022-11-07T02:54:50.049Z,1.27
2022-11-07T02:55:02.098Z,1.25
2022-11-07T02:55:14.770Z,1.40
2022-11-07T02:55:26.715Z,1.20
2022-11-07T02:55:39.055Z,1.20
2022-11-07T02:55:50.961Z,1.13
2022-11-07T02:56:02.861Z,1.20
2022-11-07T02:56:14.842Z,1.15
2022-11-07T02:56:26.788Z,1.20
2022-11-07T02:56:38.736Z,1.27
2022-11-07T02:56:50.637Z,1.20
2022-11-07T02:57:02.967Z,1.17
2022-11-07T02:57:14.831Z,1.20
2022-11-07T02:57:27.009Z,1.30
2022-11-07T02:57:38.978Z,1.20
2022-11-07T02:57:50.872Z,1.10
2022-11-07T02:58:02.999Z,1.10
2022-11-07T02:58:15.224Z,1.20
2022-11-07T02:58:27.094Z,1.20
2022-11-07T02:58:39.087Z,1.30
2022-11-07T02:58:52.559Z,1.30
2022-11-07T02:59:04.593Z,1.30
2022-11-07T02:59:16.476Z,1.50